sensor_id;sensor_type;location;lat;lon;timestamp;P1;durP1;ratioP1;P2;durP2;ratioP2
27428;SDS011;14881;48.092;11.574;2022-07-06T00:00:16;4.28;;;3.17;;
27428;SDS011;14881;48.092;11.574;2022-07-06T00:02:44;5.43;;;3.10;;
27428;SDS011;14881;48.092;11.574;2022-07-06T00:05:12;4.97;;;3.13;;
27428;SDS011;14881;48.092;11.574;2022-07-06T00:07:39;3.03;;;2.83;;
27428;SDS011;14881;48.092;11.574;2022-07-06T00:10:07;2.45;;;2.25;;
27428;SDS011;14881;48.092;11.574;2022-07-06T00:12:35;5.75;;;2.78;;
27428;SDS011;14881;48.092;11.574;2022-07-06T00:15:03;5.38;;;3.10;;
27428;SDS011;14881;48.092;11.574;2022-07-06T00:17:33;4.50;;;3.10;;
27428;SDS011;14881;48.092;11.574;2022-07-06T00:20:01;6.10;;;3.10;;
27428;SDS011;14881;48.092;11.574;2022-07-06T00:22:29;3.38;;;3.00;;
27428;SDS011;14881;48.092;11.574;2022-07-06T00:24:56;3.42;;;2.70;;
27428;SDS011;14881;48.092;11.574;2022-07-06T00:27:24;6.80;;;3.38;;
27428;SDS011;14881;48.092;11.574;2022-07-06T00:29:52;2.67;;;2.47;;
27428;SDS011;14881;48.092;11.574;2022-07-06T00:32:20;8.13;;;3.08;;
27428;SDS011;14881;48.092;11.574;2022-07-06T00:34:49;6.00;;;2.75;;
27428;SDS011;14881;48.092;11.574;2022-07-06T00:37:17;3.08;;;2.60;;
27428;SDS011;14881;48.092;11.574;2022-07-06T00:39:45;3.92;;;3.08;;
27428;SDS011;14881;48.092;11.574;2022-07-06T00:42:12;4.78;;;2.70;;
27428;SDS011;14881;48.092;11.574;2022-07-06T00:44:40;5.85;;;3.05;;
27428;SDS011;14881;48.092;11.574;2022-07-06T00:47:08;3.13;;;2.83;;
27428;SDS011;14881;48.092;11.574;2022-07-06T00:49:36;4.43;;;2.90;;
27428;SDS011;14881;48.092;11.574;2022-07-06T00:52:23;5.20;;;3.13;;
27428;SDS011;14881;48.092;11.574;2022-07-06T00:54:51;3.28;;;2.97;;
27428;SDS011;14881;48.092;11.574;2022-07-06T00:57:20;3.05;;;2.83;;
27428;SDS011;14881;48.092;11.574;2022-07-06T00:59:47;4.03;;;3.00;;
27428;SDS011;14881;48.092;11.574;2022-07-06T01:02:15;3.25;;;2.90;;
27428;SDS011;14881;48.092;11.574;2022-07-06T01:04:43;4.80;;;2.90;;
27428;SDS011;14881;48.092;11.574;2022-07-06T01:07:11;5.00;;;2.85;;
27428;SDS011;14881;48.092;11.574;2022-07-06T01:09:40;4.43;;;3.33;;
27428;SDS011;14881;48.092;11.574;2022-07-06T01:12:08;3.30;;;2.90;;
27428;SDS011;14881;48.092;11.574;2022-07-06T01:14:35;4.03;;;2.85;;
27428;SDS011;14881;48.092;11.574;2022-07-06T01:17:04;4.97;;;2.75;;
27428;SDS011;14881;48.092;11.574;2022-07-06T01:19:32;4.78;;;2.78;;
27428;SDS011;14881;48.092;11.574;2022-07-06T01:22:02;3.40;;;3.10;;
27428;SDS011;14881;48.092;11.574;2022-07-06T01:24:30;4.30;;;2.75;;
27428;SDS011;14881;48.092;11.574;2022-07-06T01:26:58;5.68;;;3.15;;
27428;SDS011;14881;48.092;11.574;2022-07-06T01:29:25;4.97;;;2.83;;
27428;SDS011;14881;48.092;11.574;2022-07-06T01:31:53;3.20;;;2.90;;
27428;SDS011;14881;48.092;11.574;2022-07-06T01:34:22;5.18;;;3.03;;
27428;SDS011;14881;48.092;11.574;2022-07-06T01:36:49;3.30;;;3.05;;
27428;SDS011;14881;48.092;11.574;2022-07-06T01:39:19;3.00;;;2.80;;
27428;SDS011;14881;48.092;11.574;2022-07-06T01:41:46;3.47;;;3.05;;
27428;SDS011;14881;48.092;11.574;2022-07-06T01:44:14;3.22;;;2.92;;
27428;SDS011;14881;48.092;11.574;2022-07-06T01:46:42;5.53;;;2.90;;
27428;SDS011;14881;48.092;11.574;2022-07-06T01:49:10;5.13;;;3.30;;
27428;SDS011;14881;48.092;11.574;2022-07-06T01:51:37;4.07;;;3.10;;
27428;SDS011;14881;48.092;11.574;2022-07-06T01:54:05;4.88;;;2.70;;
27428;SDS011;14881;48.092;11.574;2022-07-06T01:56:34;3.42;;;2.72;;
27428;SDS011;14881;48.092;11.574;2022-07-06T01:59:02;5.07;;;3.00;;
27428;SDS011;14881;48.092;11.574;2022-07-06T02:01:30;3.58;;;3.00;;
27428;SDS011;14881;48.092;11.574;2022-07-06T02:03:57;4.38;;;3.28;;
27428;SDS011;14881;48.092;11.574;2022-07-06T02:06:25;3.50;;;2.63;;
27428;SDS011;14881;48.092;11.574;2022-07-06T02:08:53;4.63;;;3.42;;
27428;SDS011;14881;48.092;11.574;2022-07-06T02:11:21;4.15;;;2.78;;
27428;SDS011;14881;48.092;11.574;2022-07-06T02:13:50;4.20;;;2.75;;
27428;SDS011;14881;48.092;11.574;2022-07-06T02:16:18;3.30;;;3.10;;
27428;SDS011;14881;48.092;11.574;2022-07-06T02:18:45;3.22;;;2.92;;
27428;SDS011;14881;48.092;11.574;2022-07-06T02:21:13;3.00;;;2.70;;
27428;SDS011;14881;48.092;11.574;2022-07-06T02:23:41;3.13;;;2.80;;
27428;SDS011;14881;48.092;11.574;2022-07-06T02:26:09;3.15;;;2.85;;
27428;SDS011;14881;48.092;11.574;2022-07-06T02:28:37;4.20;;;2.88;;
27428;SDS011;14881;48.092;11.574;2022-07-06T02:31:06;4.65;;;2.92;;
27428;SDS011;14881;48.092;11.574;2022-07-06T02:33:34;3.20;;;2.90;;
27428;SDS011;14881;48.092;11.574;2022-07-06T02:36:02;3.50;;;2.65;;
27428;SDS011;14881;48.092;11.574;2022-07-06T02:38:30;3.30;;;3.03;;
27428;SDS011;14881;48.092;11.574;2022-07-06T02:40:57;3.58;;;3.28;;
27428;SDS011;14881;48.092;11.574;2022-07-06T02:43:25;4.22;;;3.10;;
27428;SDS011;14881;48.092;11.574;2022-07-06T02:45:53;4.10;;;2.78;;
27428;SDS011;14881;48.092;11.574;2022-07-06T02:48:22;3.90;;;2.78;;
27428;SDS011;14881;48.092;11.574;2022-07-06T02:50:51;5.40;;;2.80;;
27428;SDS011;14881;48.092;11.574;2022-07-06T02:53:18;3.45;;;3.08;;
27428;SDS011;14881;48.092;11.574;2022-07-06T02:55:46;4.95;;;2.80;;
27428;SDS011;14881;48.092;11.574;2022-07-06T02:58:14;3.03;;;2.83;;
27428;SDS011;14881;48.092;11.574;2022-07-06T03:00:42;3.20;;;2.78;;
27428;SDS011;14881;48.092;11.574;2022-07-06T03:03:09;2.83;;;2.63;;
27428;SDS011;14881;48.092;11.574;2022-07-06T03:05:39;5.22;;;2.75;;
27428;SDS011;14881;48.092;11.574;2022-07-06T03:08:06;7.93;;;3.10;;
27428;SDS011;14881;48.092;11.574;2022-07-06T03:10:34;4.25;;;2.80;;
27428;SDS011;14881;48.092;11.574;2022-07-06T03:13:02;3.20;;;2.88;;
27428;SDS011;14881;48.092;11.574;2022-07-06T03:15:30;3.22;;;2.92;;
27428;SDS011;14881;48.092;11.574;2022-07-06T03:17:58;3.85;;;3.00;;
27428;SDS011;14881;48.092;11.574;2022-07-06T03:20:26;5.43;;;3.05;;
27428;SDS011;14881;48.092;11.574;2022-07-06T03:22:55;3.58;;;2.78;;
27428;SDS011;14881;48.092;11.574;2022-07-06T03:25:23;3.40;;;3.10;;
27428;SDS011;14881;48.092;11.574;2022-07-06T03:27:50;4.43;;;2.70;;
27428;SDS011;14881;48.092;11.574;2022-07-06T03:30:18;3.60;;;2.90;;
27428;SDS011;14881;48.092;11.574;2022-07-06T03:32:46;4.57;;;3.10;;
27428;SDS011;14881;48.092;11.574;2022-07-06T03:35:14;3.28;;;2.95;;
27428;SDS011;14881;48.092;11.574;2022-07-06T03:37:42;4.57;;;3.33;;
27428;SDS011;14881;48.092;11.574;2022-07-06T03:40:11;4.65;;;3.08;;
27428;SDS011;14881;48.092;11.574;2022-07-06T03:42:40;4.55;;;3.15;;
27428;SDS011;14881;48.092;11.574;2022-07-06T03:45:08;3.65;;;3.35;;
27428;SDS011;14881;48.092;11.574;2022-07-06T03:47:36;3.90;;;3.50;;
27428;SDS011;14881;48.092;11.574;2022-07-06T03:50:05;4.05;;;2.90;;
27428;SDS011;14881;48.092;11.574;2022-07-06T03:52:33;3.75;;;3.35;;
27428;SDS011;14881;48.092;11.574;2022-07-06T03:55:06;4.35;;;2.80;;
27428;SDS011;14881;48.092;11.574;2022-07-06T03:57:37;3.45;;;2.92;;
27428;SDS011;14881;48.092;11.574;2022-07-06T04:00:07;4.68;;;2.75;;
27428;SDS011;14881;48.092;11.574;2022-07-06T04:02:36;3.55;;;3.25;;
27428;SDS011;14881;48.092;11.574;2022-07-06T04:05:04;4.30;;;3.15;;
27428;SDS011;14881;48.092;11.574;2022-07-06T04:07:32;4.18;;;3.13;;
27428;SDS011;14881;48.092;11.574;2022-07-06T04:10:00;4.90;;;3.20;;
27428;SDS011;14881;48.092;11.574;2022-07-06T04:12:28;3.10;;;2.90;;
27428;SDS011;14881;48.092;11.574;2022-07-06T04:14:57;3.40;;;3.10;;
27428;SDS011;14881;48.092;11.574;2022-07-06T04:17:25;3.40;;;3.10;;
27428;SDS011;14881;48.092;11.574;2022-07-06T04:20:10;3.33;;;3.03;;
27428;SDS011;14881;48.092;11.574;2022-07-06T04:22:39;4.85;;;3.53;;
27428;SDS011;14881;48.092;11.574;2022-07-06T04:25:07;3.97;;;3.10;;
27428;SDS011;14881;48.092;11.574;2022-07-06T04:27:36;3.33;;;3.03;;
27428;SDS011;14881;48.092;11.574;2022-07-06T04:30:05;3.63;;;3.15;;
27428;SDS011;14881;48.092;11.574;2022-07-06T04:32:34;3.30;;;3.00;;
27428;SDS011;14881;48.092;11.574;2022-07-06T04:35:02;3.38;;;3.08;;
27428;SDS011;14881;48.092;11.574;2022-07-06T04:37:30;3.00;;;2.75;;
27428;SDS011;14881;48.092;11.574;2022-07-06T04:39:58;3.65;;;2.60;;
27428;SDS011;14881;48.092;11.574;2022-07-06T04:42:26;5.78;;;2.80;;
27428;SDS011;14881;48.092;11.574;2022-07-06T04:44:54;2.97;;;2.70;;
27428;SDS011;14881;48.092;11.574;2022-07-06T04:47:23;2.80;;;2.60;;
27428;SDS011;14881;48.092;11.574;2022-07-06T04:49:51;5.03;;;2.85;;
27428;SDS011;14881;48.092;11.574;2022-07-06T04:52:19;5.72;;;2.85;;
27428;SDS011;14881;48.092;11.574;2022-07-06T04:54:46;2.88;;;2.65;;
27428;SDS011;14881;48.092;11.574;2022-07-06T04:57:14;4.53;;;2.63;;
27428;SDS011;14881;48.092;11.574;2022-07-06T04:59:42;3.03;;;2.78;;
27428;SDS011;14881;48.092;11.574;2022-07-06T05:02:11;6.70;;;3.03;;
27428;SDS011;14881;48.092;11.574;2022-07-06T05:04:40;4.28;;;3.13;;
27428;SDS011;14881;48.092;11.574;2022-07-06T05:07:08;3.33;;;2.50;;
27428;SDS011;14881;48.092;11.574;2022-07-06T05:09:36;3.10;;;2.80;;
27428;SDS011;14881;48.092;11.574;2022-07-06T05:12:04;3.05;;;2.75;;
27428;SDS011;14881;48.092;11.574;2022-07-06T05:14:32;4.00;;;2.53;;
27428;SDS011;14881;48.092;11.574;2022-07-06T05:16:59;3.38;;;3.00;;
27428;SDS011;14881;48.092;11.574;2022-07-06T05:19:27;3.15;;;2.70;;
27428;SDS011;14881;48.092;11.574;2022-07-06T05:21:56;6.28;;;2.85;;
27428;SDS011;14881;48.092;11.574;2022-07-06T05:24:24;2.60;;;2.40;;
27428;SDS011;14881;48.092;11.574;2022-07-06T05:26:52;3.92;;;2.45;;
27428;SDS011;14881;48.092;11.574;2022-07-06T05:29:19;2.83;;;2.60;;
27428;SDS011;14881;48.092;11.574;2022-07-06T05:31:47;2.58;;;2.38;;
27428;SDS011;14881;48.092;11.574;2022-07-06T05:34:16;5.03;;;2.80;;
27428;SDS011;14881;48.092;11.574;2022-07-06T05:36:44;4.28;;;2.20;;
27428;SDS011;14881;48.092;11.574;2022-07-06T05:39:13;4.28;;;2.38;;
27428;SDS011;14881;48.092;11.574;2022-07-06T05:41:45;4.40;;;2.67;;
27428;SDS011;14881;48.092;11.574;2022-07-06T05:44:13;3.33;;;2.28;;
27428;SDS011;14881;48.092;11.574;2022-07-06T05:46:40;2.53;;;2.30;;
27428;SDS011;14881;48.092;11.574;2022-07-06T05:49:08;3.58;;;2.30;;
27428;SDS011;14881;48.092;11.574;2022-07-06T05:51:54;2.97;;;2.50;;
27428;SDS011;14881;48.092;11.574;2022-07-06T05:54:23;3.10;;;2.03;;
27428;SDS011;14881;48.092;11.574;2022-07-06T05:56:51;2.20;;;2.03;;
27428;SDS011;14881;48.092;11.574;2022-07-06T05:59:19;3.40;;;2.05;;
27428;SDS011;14881;48.092;11.574;2022-07-06T06:01:46;3.97;;;2.20;;
27428;SDS011;14881;48.092;11.574;2022-07-06T06:04:14;3.20;;;2.35;;
27428;SDS011;14881;48.092;11.574;2022-07-06T06:06:42;3.30;;;2.25;;
27428;SDS011;14881;48.092;11.574;2022-07-06T06:09:10;2.45;;;2.10;;
27428;SDS011;14881;48.092;11.574;2022-07-06T06:11:39;2.90;;;2.40;;
27428;SDS011;14881;48.092;11.574;2022-07-06T06:14:06;5.95;;;2.40;;
27428;SDS011;14881;48.092;11.574;2022-07-06T06:16:34;4.93;;;2.60;;
27428;SDS011;14881;48.092;11.574;2022-07-06T06:19:03;2.63;;;2.42;;
27428;SDS011;14881;48.092;11.574;2022-07-06T06:21:31;6.63;;;2.53;;
27428;SDS011;14881;48.092;11.574;2022-07-06T06:23:58;6.35;;;2.38;;
27428;SDS011;14881;48.092;11.574;2022-07-06T06:26:26;5.28;;;2.50;;
27428;SDS011;14881;48.092;11.574;2022-07-06T06:28:55;3.05;;;2.40;;
27428;SDS011;14881;48.092;11.574;2022-07-06T06:31:23;4.00;;;2.72;;
27428;SDS011;14881;48.092;11.574;2022-07-06T06:33:51;5.50;;;2.40;;
27428;SDS011;14881;48.092;11.574;2022-07-06T06:36:19;3.65;;;2.58;;
27428;SDS011;14881;48.092;11.574;2022-07-06T06:38:46;8.18;;;2.70;;
27428;SDS011;14881;48.092;11.574;2022-07-06T06:41:21;2.42;;;2.30;;
27428;SDS011;14881;48.092;11.574;2022-07-06T06:43:49;3.35;;;2.35;;
27428;SDS011;14881;48.092;11.574;2022-07-06T06:46:18;4.60;;;2.40;;
27428;SDS011;14881;48.092;11.574;2022-07-06T06:48:46;6.18;;;2.92;;
27428;SDS011;14881;48.092;11.574;2022-07-06T06:51:14;5.35;;;2.50;;
27428;SDS011;14881;48.092;11.574;2022-07-06T06:53:42;5.60;;;2.33;;
27428;SDS011;14881;48.092;11.574;2022-07-06T06:56:09;2.53;;;2.33;;
27428;SDS011;14881;48.092;11.574;2022-07-06T06:58:37;4.30;;;2.80;;
27428;SDS011;14881;48.092;11.574;2022-07-06T07:01:26;4.47;;;2.40;;
27428;SDS011;14881;48.092;11.574;2022-07-06T07:03:54;3.50;;;2.20;;
27428;SDS011;14881;48.092;11.574;2022-07-06T07:06:22;3.45;;;2.22;;
27428;SDS011;14881;48.092;11.574;2022-07-06T07:08:50;2.83;;;2.60;;
27428;SDS011;14881;48.092;11.574;2022-07-06T07:11:18;6.10;;;2.15;;
27428;SDS011;14881;48.092;11.574;2022-07-06T07:13:46;6.15;;;2.50;;
27428;SDS011;14881;48.092;11.574;2022-07-06T07:16:14;4.38;;;2.45;;
27428;SDS011;14881;48.092;11.574;2022-07-06T07:18:43;4.88;;;2.60;;
27428;SDS011;14881;48.092;11.574;2022-07-06T07:21:11;3.80;;;2.53;;
27428;SDS011;14881;48.092;11.574;2022-07-06T07:23:39;8.18;;;2.83;;
27428;SDS011;14881;48.092;11.574;2022-07-06T07:26:06;3.78;;;2.65;;
27428;SDS011;14881;48.092;11.574;2022-07-06T07:28:34;5.35;;;2.45;;
27428;SDS011;14881;48.092;11.574;2022-07-06T07:31:03;3.67;;;2.45;;
27428;SDS011;14881;48.092;11.574;2022-07-06T07:33:31;4.85;;;2.40;;
27428;SDS011;14881;48.092;11.574;2022-07-06T07:36:01;6.57;;;2.60;;
27428;SDS011;14881;48.092;11.574;2022-07-06T07:38:29;5.80;;;2.65;;
27428;SDS011;14881;48.092;11.574;2022-07-06T07:40:56;3.92;;;2.40;;
27428;SDS011;14881;48.092;11.574;2022-07-06T07:43:24;5.07;;;2.88;;
27428;SDS011;14881;48.092;11.574;2022-07-06T07:45:52;12.23;;;2.72;;
27428;SDS011;14881;48.092;11.574;2022-07-06T07:48:20;4.22;;;3.10;;
27428;SDS011;14881;48.092;11.574;2022-07-06T07:50:48;2.92;;;2.28;;
27428;SDS011;14881;48.092;11.574;2022-07-06T07:53:17;4.93;;;2.70;;
27428;SDS011;14881;48.092;11.574;2022-07-06T07:55:45;2.53;;;2.22;;
27428;SDS011;14881;48.092;11.574;2022-07-06T07:58:13;3.40;;;2.70;;
27428;SDS011;14881;48.092;11.574;2022-07-06T08:00:40;2.78;;;2.50;;
27428;SDS011;14881;48.092;11.574;2022-07-06T08:03:08;4.80;;;2.67;;
27428;SDS011;14881;48.092;11.574;2022-07-06T08:05:36;5.13;;;2.55;;
27428;SDS011;14881;48.092;11.574;2022-07-06T08:08:04;2.78;;;2.47;;
27428;SDS011;14881;48.092;11.574;2022-07-06T08:10:33;3.35;;;2.55;;
27428;SDS011;14881;48.092;11.574;2022-07-06T08:13:11;3.10;;;2.50;;
27428;SDS011;14881;48.092;11.574;2022-07-06T08:15:41;5.28;;;2.55;;
27428;SDS011;14881;48.092;11.574;2022-07-06T08:18:09;4.30;;;2.50;;
27428;SDS011;14881;48.092;11.574;2022-07-06T08:20:37;4.38;;;2.53;;
27428;SDS011;14881;48.092;11.574;2022-07-06T08:23:25;6.28;;;2.53;;
27428;SDS011;14881;48.092;11.574;2022-07-06T08:25:54;3.83;;;2.55;;
27428;SDS011;14881;48.092;11.574;2022-07-06T08:28:22;6.72;;;2.60;;
27428;SDS011;14881;48.092;11.574;2022-07-06T08:30:51;4.65;;;2.60;;
27428;SDS011;14881;48.092;11.574;2022-07-06T08:33:20;5.85;;;2.63;;
27428;SDS011;14881;48.092;11.574;2022-07-06T08:35:48;4.85;;;2.78;;
27428;SDS011;14881;48.092;11.574;2022-07-06T08:38:16;2.55;;;2.35;;
27428;SDS011;14881;48.092;11.574;2022-07-06T08:40:45;3.90;;;2.47;;
27428;SDS011;14881;48.092;11.574;2022-07-06T08:43:17;4.38;;;2.80;;
27428;SDS011;14881;48.092;11.574;2022-07-06T08:45:45;4.72;;;2.53;;
27428;SDS011;14881;48.092;11.574;2022-07-06T08:48:15;3.78;;;2.83;;
27428;SDS011;14881;48.092;11.574;2022-07-06T08:50:45;5.28;;;2.60;;
27428;SDS011;14881;48.092;11.574;2022-07-06T08:53:13;6.15;;;2.70;;
27428;SDS011;14881;48.092;11.574;2022-07-06T08:55:41;6.00;;;3.13;;
27428;SDS011;14881;48.092;11.574;2022-07-06T08:58:09;5.05;;;2.75;;
27428;SDS011;14881;48.092;11.574;2022-07-06T09:00:39;7.07;;;3.03;;
27428;SDS011;14881;48.092;11.574;2022-07-06T09:03:09;3.17;;;2.72;;
27428;SDS011;14881;48.092;11.574;2022-07-06T09:05:39;4.72;;;2.92;;
27428;SDS011;14881;48.092;11.574;2022-07-06T09:08:07;3.25;;;2.65;;
27428;SDS011;14881;48.092;11.574;2022-07-06T09:10:35;8.05;;;3.20;;
27428;SDS011;14881;48.092;11.574;2022-07-06T09:13:03;2.88;;;2.55;;
27428;SDS011;14881;48.092;11.574;2022-07-06T09:15:33;5.68;;;3.05;;
27428;SDS011;14881;48.092;11.574;2022-07-06T09:18:03;4.38;;;3.00;;
27428;SDS011;14881;48.092;11.574;2022-07-06T09:20:31;4.97;;;2.78;;
27428;SDS011;14881;48.092;11.574;2022-07-06T09:23:00;3.38;;;2.42;;
27428;SDS011;14881;48.092;11.574;2022-07-06T09:25:28;5.72;;;2.88;;
27428;SDS011;14881;48.092;11.574;2022-07-06T09:27:57;3.70;;;2.80;;
27428;SDS011;14881;48.092;11.574;2022-07-06T09:30:26;4.38;;;2.83;;
27428;SDS011;14881;48.092;11.574;2022-07-06T09:32:55;3.72;;;2.90;;
27428;SDS011;14881;48.092;11.574;2022-07-06T09:35:26;6.13;;;3.40;;
27428;SDS011;14881;48.092;11.574;2022-07-06T09:38:02;4.70;;;2.83;;
27428;SDS011;14881;48.092;11.574;2022-07-06T09:40:31;3.13;;;2.83;;
27428;SDS011;14881;48.092;11.574;2022-07-06T09:43:07;5.25;;;3.13;;
27428;SDS011;14881;48.092;11.574;2022-07-06T09:45:37;6.07;;;3.00;;
27428;SDS011;14881;48.092;11.574;2022-07-06T09:48:06;7.50;;;3.10;;
27428;SDS011;14881;48.092;11.574;2022-07-06T09:50:40;5.03;;;2.70;;
27428;SDS011;14881;48.092;11.574;2022-07-06T09:53:10;4.55;;;3.13;;
27428;SDS011;14881;48.092;11.574;2022-07-06T09:55:38;3.13;;;2.38;;
27428;SDS011;14881;48.092;11.574;2022-07-06T09:58:09;3.92;;;3.22;;
27428;SDS011;14881;48.092;11.574;2022-07-06T10:00:37;4.90;;;2.60;;
27428;SDS011;14881;48.092;11.574;2022-07-06T10:03:06;3.00;;;2.47;;
27428;SDS011;14881;48.092;11.574;2022-07-06T10:05:36;2.88;;;2.50;;
27428;SDS011;14881;48.092;11.574;2022-07-06T10:08:07;5.40;;;2.70;;
27428;SDS011;14881;48.092;11.574;2022-07-06T10:10:36;2.58;;;2.38;;
27428;SDS011;14881;48.092;11.574;2022-07-06T10:13:06;5.53;;;2.80;;
27428;SDS011;14881;48.092;11.574;2022-07-06T10:15:35;6.97;;;2.97;;
27428;SDS011;14881;48.092;11.574;2022-07-06T10:18:07;3.35;;;2.60;;
27428;SDS011;14881;48.092;11.574;2022-07-06T10:20:37;2.70;;;2.20;;
27428;SDS011;14881;48.092;11.574;2022-07-06T10:23:08;3.88;;;2.72;;
27428;SDS011;14881;48.092;11.574;2022-07-06T10:25:36;4.95;;;2.47;;
27428;SDS011;14881;48.092;11.574;2022-07-06T10:28:04;2.88;;;2.45;;
27428;SDS011;14881;48.092;11.574;2022-07-06T10:30:40;3.95;;;2.42;;
27428;SDS011;14881;48.092;11.574;2022-07-06T10:33:09;5.80;;;2.80;;
27428;SDS011;14881;48.092;11.574;2022-07-06T10:35:40;3.40;;;2.90;;
27428;SDS011;14881;48.092;11.574;2022-07-06T10:38:11;3.35;;;2.47;;
27428;SDS011;14881;48.092;11.574;2022-07-06T10:40:39;4.43;;;2.80;;
27428;SDS011;14881;48.092;11.574;2022-07-06T10:43:32;6.28;;;2.72;;
27428;SDS011;14881;48.092;11.574;2022-07-06T10:46:08;5.18;;;2.55;;
27428;SDS011;14881;48.092;11.574;2022-07-06T10:48:38;5.45;;;2.88;;
27428;SDS011;14881;48.092;11.574;2022-07-06T10:51:06;4.15;;;2.40;;
27428;SDS011;14881;48.092;11.574;2022-07-06T10:53:37;4.45;;;2.88;;
27428;SDS011;14881;48.092;11.574;2022-07-06T10:56:06;6.00;;;2.72;;
27428;SDS011;14881;48.092;11.574;2022-07-06T10:58:39;4.32;;;2.75;;
27428;SDS011;14881;48.092;11.574;2022-07-06T11:01:09;7.03;;;2.55;;
27428;SDS011;14881;48.092;11.574;2022-07-06T11:03:41;2.72;;;2.45;;
27428;SDS011;14881;48.092;11.574;2022-07-06T11:06:12;6.07;;;2.53;;
27428;SDS011;14881;48.092;11.574;2022-07-06T11:08:43;3.40;;;2.63;;
27428;SDS011;14881;48.092;11.574;2022-07-06T11:11:18;4.97;;;2.95;;
27428;SDS011;14881;48.092;11.574;2022-07-06T11:13:48;3.03;;;2.60;;
27428;SDS011;14881;48.092;11.574;2022-07-06T11:16:17;3.00;;;2.70;;
27428;SDS011;14881;48.092;11.574;2022-07-06T11:18:46;7.38;;;2.60;;
27428;SDS011;14881;48.092;11.574;2022-07-06T11:21:15;5.32;;;2.83;;
27428;SDS011;14881;48.092;11.574;2022-07-06T11:23:46;4.18;;;2.58;;
27428;SDS011;14881;48.092;11.574;2022-07-06T11:26:15;6.03;;;2.67;;
27428;SDS011;14881;48.092;11.574;2022-07-06T11:28:45;8.48;;;2.83;;
27428;SDS011;14881;48.092;11.574;2022-07-06T11:31:15;2.70;;;2.20;;
27428;SDS011;14881;48.092;11.574;2022-07-06T11:33:44;2.92;;;1.98;;
27428;SDS011;14881;48.092;11.574;2022-07-06T11:36:14;6.07;;;2.25;;
27428;SDS011;14881;48.092;11.574;2022-07-06T11:38:43;5.10;;;2.78;;
27428;SDS011;14881;48.092;11.574;2022-07-06T11:41:13;2.35;;;2.10;;
27428;SDS011;14881;48.092;11.574;2022-07-06T11:43:42;2.65;;;2.45;;
27428;SDS011;14881;48.092;11.574;2022-07-06T11:46:21;6.18;;;2.63;;
27428;SDS011;14881;48.092;11.574;2022-07-06T11:48:51;3.03;;;2.38;;
27428;SDS011;14881;48.092;11.574;2022-07-06T11:51:21;2.65;;;2.45;;
27428;SDS011;14881;48.092;11.574;2022-07-06T11:53:50;3.90;;;2.30;;
27428;SDS011;14881;48.092;11.574;2022-07-06T11:56:22;2.40;;;2.20;;
27428;SDS011;14881;48.092;11.574;2022-07-06T11:58:54;5.93;;;2.10;;
27428;SDS011;14881;48.092;11.574;2022-07-06T12:01:24;3.53;;;2.33;;
27428;SDS011;14881;48.092;11.574;2022-07-06T12:03:53;2.58;;;2.38;;
27428;SDS011;14881;48.092;11.574;2022-07-06T12:06:25;3.53;;;2.50;;
27428;SDS011;14881;48.092;11.574;2022-07-06T12:08:55;3.15;;;2.00;;
27428;SDS011;14881;48.092;11.574;2022-07-06T12:11:26;3.83;;;2.15;;
27428;SDS011;14881;48.092;11.574;2022-07-06T12:13:56;3.50;;;2.50;;
27428;SDS011;14881;48.092;11.574;2022-07-06T12:16:28;2.55;;;2.25;;
27428;SDS011;14881;48.092;11.574;2022-07-06T12:18:57;3.15;;;2.20;;
27428;SDS011;14881;48.092;11.574;2022-07-06T12:21:32;2.57;;;2.30;;
27428;SDS011;14881;48.092;11.574;2022-07-06T12:24:01;2.45;;;2.03;;
27428;SDS011;14881;48.092;11.574;2022-07-06T12:26:38;2.67;;;2.00;;
27428;SDS011;14881;48.092;11.574;2022-07-06T12:29:07;4.47;;;2.30;;
27428;SDS011;14881;48.092;11.574;2022-07-06T12:31:36;4.97;;;2.30;;
27428;SDS011;14881;48.092;11.574;2022-07-06T12:34:11;4.60;;;2.50;;
27428;SDS011;14881;48.092;11.574;2022-07-06T12:36:44;4.05;;;2.40;;
27428;SDS011;14881;48.092;11.574;2022-07-06T12:39:13;5.63;;;2.40;;
27428;SDS011;14881;48.092;11.574;2022-07-06T12:41:47;4.88;;;2.28;;
27428;SDS011;14881;48.092;11.574;2022-07-06T12:44:17;3.28;;;2.10;;
27428;SDS011;14881;48.092;11.574;2022-07-06T12:46:47;3.55;;;2.10;;
27428;SDS011;14881;48.092;11.574;2022-07-06T12:49:16;4.32;;;1.90;;
27428;SDS011;14881;48.092;11.574;2022-07-06T12:51:50;7.22;;;2.67;;
27428;SDS011;14881;48.092;11.574;2022-07-06T12:54:26;3.97;;;2.20;;
27428;SDS011;14881;48.092;11.574;2022-07-06T12:56:57;3.13;;;2.10;;
27428;SDS011;14881;48.092;11.574;2022-07-06T12:59:27;4.93;;;2.30;;
27428;SDS011;14881;48.092;11.574;2022-07-06T13:01:56;4.50;;;2.60;;
27428;SDS011;14881;48.092;11.574;2022-07-06T13:04:25;8.35;;;2.40;;
27428;SDS011;14881;48.092;11.574;2022-07-06T13:06:54;3.15;;;2.03;;
27428;SDS011;14881;48.092;11.574;2022-07-06T13:09:22;2.22;;;2.03;;
27428;SDS011;14881;48.092;11.574;2022-07-06T13:11:50;4.07;;;2.40;;
27428;SDS011;14881;48.092;11.574;2022-07-06T13:14:19;5.05;;;2.47;;
27428;SDS011;14881;48.092;11.574;2022-07-06T13:16:47;5.35;;;2.60;;
27428;SDS011;14881;48.092;11.574;2022-07-06T13:19:15;3.15;;;2.20;;
27428;SDS011;14881;48.092;11.574;2022-07-06T13:21:43;4.30;;;2.20;;
27428;SDS011;14881;48.092;11.574;2022-07-06T13:24:12;7.82;;;2.40;;
27428;SDS011;14881;48.092;11.574;2022-07-06T13:26:40;3.13;;;2.50;;
27428;SDS011;14881;48.092;11.574;2022-07-06T13:29:07;2.92;;;2.03;;
27428;SDS011;14881;48.092;11.574;2022-07-06T13:31:39;2.92;;;2.28;;
27428;SDS011;14881;48.092;11.574;2022-07-06T13:34:07;5.57;;;2.33;;
27428;SDS011;14881;48.092;11.574;2022-07-06T13:36:35;6.25;;;2.42;;
27428;SDS011;14881;48.092;11.574;2022-07-06T13:39:04;6.63;;;2.33;;
27428;SDS011;14881;48.092;11.574;2022-07-06T13:41:32;2.45;;;2.20;;
27428;SDS011;14881;48.092;11.574;2022-07-06T13:44:00;6.80;;;2.30;;
27428;SDS011;14881;48.092;11.574;2022-07-06T13:46:28;3.90;;;2.20;;
27428;SDS011;14881;48.092;11.574;2022-07-06T13:48:58;2.88;;;2.25;;
27428;SDS011;14881;48.092;11.574;2022-07-06T13:51:26;5.07;;;2.08;;
27428;SDS011;14881;48.092;11.574;2022-07-06T13:53:55;3.90;;;2.10;;
27428;SDS011;14881;48.092;11.574;2022-07-06T13:56:22;2.50;;;2.20;;
27428;SDS011;14881;48.092;11.574;2022-07-06T13:58:50;4.03;;;2.22;;
27428;SDS011;14881;48.092;11.574;2022-07-06T14:01:18;7.15;;;2.88;;
27428;SDS011;14881;48.092;11.574;2022-07-06T14:03:53;3.03;;;2.15;;
27428;SDS011;14881;48.092;11.574;2022-07-06T14:06:22;2.42;;;2.05;;
27428;SDS011;14881;48.092;11.574;2022-07-06T14:08:50;3.95;;;2.03;;
27428;SDS011;14881;48.092;11.574;2022-07-06T14:11:18;4.57;;;2.35;;
27428;SDS011;14881;48.092;11.574;2022-07-06T14:13:46;5.85;;;2.25;;
27428;SDS011;14881;48.092;11.574;2022-07-06T14:16:14;6.45;;;2.10;;
27428;SDS011;14881;48.092;11.574;2022-07-06T14:18:42;3.88;;;2.65;;
27428;SDS011;14881;48.092;11.574;2022-07-06T14:21:10;3.67;;;2.20;;
27428;SDS011;14881;48.092;11.574;2022-07-06T14:23:39;2.58;;;2.38;;
27428;SDS011;14881;48.092;11.574;2022-07-06T14:26:07;2.20;;;2.00;;
27428;SDS011;14881;48.092;11.574;2022-07-06T14:28:35;5.45;;;2.30;;
27428;SDS011;14881;48.092;11.574;2022-07-06T14:31:03;3.55;;;2.17;;
27428;SDS011;14881;48.092;11.574;2022-07-06T14:33:30;3.30;;;2.03;;
27428;SDS011;14881;48.092;11.574;2022-07-06T14:35:58;3.42;;;2.00;;
27428;SDS011;14881;48.092;11.574;2022-07-06T14:38:26;3.90;;;2.42;;
27428;SDS011;14881;48.092;11.574;2022-07-06T14:40:56;3.03;;;2.20;;
27428;SDS011;14881;48.092;11.574;2022-07-06T14:43:24;4.15;;;1.90;;